Adams, WI (53910)

3:31 AM CDT on March 31, 2015 (GMT -0500)
Necedah Township | | Change Station
CLOSE
Current Station
Personal Weather Station
Location: Necedah, WI
Elevation: 890 ft
Nearby Weather Stations
Active Advisory: Dense Fog Advisory

Elev 890 ft 44.00 °N, 89.99 °W | Updated 1 second ago

Overcast
Overcast
34.0 °F
Feels Like 34 °F
N
0.0
Wind Variable Wind from West
Gusts 0.8 mph

Today
High -- | Low -- °F
--% Chance of Precip.
Yesterday
High -- | Low -- °F
Precip. -- in
6:42 AM 7:24 PM
Waxing Gibbous, 85% visible
Pressure 29.86 in
Visibility 0.2 miles
Clouds
Windchill 34 °F
Dew Point 34 °F
Humidity 100%
Rainfall 0.00 in
Snow Depth Not available.
UV Not available.
Pollen 7.90 out of 12
Air Quality Not available.
Flu Activity Not available.
METAR KVOK 310758Z AUTO 30005KT 1/4SM R27/0800FT FZFG VV003 M01/M01 A2983 RMK AO2 SLP111 T10121012

More Conditions Fewer Conditions

Pressure 29.86 in
Visibility 0.2 miles
Clouds
Windchill 34 °F
Dew Point 34 °F
Humidity 100%
Rainfall 0.00 in
Snow Depth Not available.
UV Not available.
Pollen 7.90 out of 12
Air Quality Not available.
Flu Activity Not available.
METAR KVOK 310758Z AUTO 30005KT 1/4SM R27/0800FT FZFG VV003 M01/M01 A2983 RMK AO2 SLP111 T10121012

More Conditions Fewer Conditions

10-Day Weather Forecast

Almanac

Astronomy

Mar. 31, 2015 Rise Set
Actual Time
Civil Twilight
Nautical Twilight
Astronomical Twilight
Moon
Length of Visible Light
Length of Day
Tomorrow will be .
, % of the Moon is Illuminated

Today's Extremes

State Highs State Lows

Community

WunderPhotos

Upload Photos

1,809,732 photos uploaded!

WunderBlogs® & News

Nearby

Air Quality

  Air Quality AQ Index Pollutant
Not available.

Snow Depth

Station Depth Elevation

Earthquake Activity

City Distance Mag. Time & Date
Minimum magnitude displayed is 2.5.

Coastal Water Temperatures

Place Temperature

Stations

Nearby Weather Stations

Station Location Temp. Windchill Dew Point Humidity Wind Precip. Elev Updated Type
                   
Dense Fog Advisory
Statement as of 2:56 AM CDT on March 31, 2015

... Dense fog advisory in effect until 10 am CDT this morning...

The National Weather Service in La Crosse has issued a dense fog
advisory... which is in effect until 10 am CDT this morning.

* The visibility will be reduced to a quarter mile or less by
dense fog.

* Where temperatures are below freezing... a thin layer of ice may
develop on exposed surfaces.

* The morning commute will be impacted by the reduced visibility
and possibly by slippery conditions.

Precautionary/preparedness actions...

A dense fog advisory means visibilities will frequently be
reduced to less than one quarter mile. If driving... slow down...
use your headlights... and leave plenty of distance ahead of you.



04